Time;durP1;ratioP1;P1;durP2;ratioP2;P2;SDS_P1;SDS_P2;PMS_P1;PMS_P2;Temp;Humidity;BMP_temperature;BMP_pressure;BME280_temperature;BME280_humidity;BME280_pressure;Samples;Min_cycle;Max_cycle;Signal;HPM_P1;HPM_P2
2024/03/25 00:01:41;;;;;;;12.60;8.17;;;3.80;99.90;;;;;;4172546;28;20294;-59
2024/03/25 00:03:42;;;;;;;9.33;6.27;;;3.80;99.90;;;;;;4175472;28;20262;-55
2024/03/25 00:05:43;;;;;;;10.40;6.47;;;3.80;99.90;;;;;;4167333;28;20274;-57
2024/03/25 00:07:44;;;;;;;12.57;7.27;;;3.80;99.90;;;;;;4166954;28;20331;-52
2024/03/25 00:09:46;;;;;;;12.57;6.40;;;3.80;99.90;;;;;;4169250;28;20352;-58
2024/03/25 00:11:47;;;;;;;10.23;6.47;;;3.90;99.90;;;;;;4163532;28;20329;-57
2024/03/25 00:13:48;;;;;;;11.30;6.20;;;3.90;99.90;;;;;;4174809;28;20815;-57
2024/03/25 00:15:50;;;;;;;8.20;5.87;;;3.80;99.90;;;;;;4176528;28;20285;-56
2024/03/25 00:17:51;;;;;;;12.17;6.10;;;3.80;99.90;;;;;;4169328;28;20324;-58
2024/03/25 00:19:53;;;;;;;8.87;5.70;;;3.80;99.90;;;;;;4166617;28;20278;-58
2024/03/25 00:21:54;;;;;;;10.57;6.33;;;3.80;99.90;;;;;;4166146;28;20306;-58
2024/03/25 00:23:59;;;;;;;11.63;5.80;;;3.80;99.90;;;;;;4163001;28;20278;-55
2024/03/25 00:26:00;;;;;;;9.10;5.80;;;3.80;99.90;;;;;;4165969;28;20275;-54
2024/03/25 00:28:01;;;;;;;12.40;6.77;;;3.80;99.90;;;;;;4166610;28;20270;-55
2024/03/25 00:30:03;;;;;;;12.27;6.70;;;3.80;99.90;;;;;;4166057;28;20270;-50
2024/03/25 00:32:05;;;;;;;10.20;5.97;;;3.70;99.90;;;;;;4166378;28;20829;-53
2024/03/25 00:34:07;;;;;;;13.60;7.33;;;3.70;99.90;;;;;;4161436;28;20309;-57
2024/03/25 00:36:08;;;;;;;10.10;5.50;;;3.70;99.90;;;;;;4165259;28;20266;-56
2024/03/25 00:38:09;;;;;;;8.30;5.30;;;3.70;99.90;;;;;;4167145;28;20325;-54
2024/03/25 00:40:11;;;;;;;10.07;5.80;;;3.70;99.90;;;;;;4167467;28;20277;-58
2024/03/25 00:42:12;;;;;;;12.63;7.20;;;3.70;99.90;;;;;;4165104;28;20390;-56
2024/03/25 00:44:14;;;;;;;14.43;7.40;;;3.70;99.90;;;;;;4164781;28;20608;-52
2024/03/25 00:46:15;;;;;;;13.97;7.70;;;3.70;99.90;;;;;;4167786;28;20278;-54
2024/03/25 00:48:16;;;;;;;13.47;7.33;;;3.60;99.90;;;;;;4166447;28;20824;-56
2024/03/25 00:50:18;;;;;;;12.03;7.17;;;3.60;99.90;;;;;;4166948;28;20671;-57
2024/03/25 00:52:20;;;;;;;9.70;5.87;;;3.50;99.90;;;;;;4172670;28;20339;-54
2024/03/25 00:54:22;;;;;;;8.87;5.10;;;3.50;99.90;;;;;;4171629;28;20278;-54
2024/03/25 00:56:23;;;;;;;8.10;4.10;;;3.50;99.90;;;;;;4172279;28;20292;-55
2024/03/25 00:58:25;;;;;;;6.07;4.00;;;3.50;99.90;;;;;;4167442;28;20328;-56
2024/03/25 01:00:26;;;;;;;8.13;3.80;;;3.60;99.90;;;;;;4165253;28;20730;-58
2024/03/25 01:02:28;;;;;;;9.87;4.23;;;3.60;99.90;;;;;;4162435;28;20354;-55
2024/03/25 01:04:29;;;;;;;10.50;3.80;;;3.50;99.90;;;;;;4163871;28;20262;-52
2024/03/25 01:06:31;;;;;;;7.37;4.03;;;3.50;99.90;;;;;;4165989;28;20262;-57
2024/03/25 01:08:32;;;;;;;4.90;3.80;;;3.50;99.90;;;;;;4164478;28;20278;-58
2024/03/25 01:10:33;;;;;;;7.33;4.00;;;3.60;99.90;;;;;;4169796;28;20336;-56
2024/03/25 01:12:35;;;;;;;8.50;3.27;;;3.60;99.90;;;;;;4176083;28;20278;-53
2024/03/25 01:14:36;;;;;;;5.90;4.10;;;3.60;99.90;;;;;;4164880;28;20316;-56
2024/03/25 01:16:37;;;;;;;8.43;4.07;;;3.60;99.90;;;;;;4167887;28;20335;-54
2024/03/25 01:18:39;;;;;;;5.27;3.53;;;3.60;99.90;;;;;;4171153;28;20270;-56
2024/03/25 01:20:40;;;;;;;6.10;3.80;;;3.60;99.90;;;;;;4177290;28;20277;-55
2024/03/25 01:22:41;;;;;;;8.53;3.73;;;3.60;99.90;;;;;;4176046;28;20348;-56
2024/03/25 01:24:42;;;;;;;7.97;3.97;;;3.60;99.90;;;;;;4169832;28;20738;-57
2024/03/25 01:26:43;;;;;;;6.27;3.50;;;3.60;99.90;;;;;;4165003;28;20356;-51
2024/03/25 01:28:45;;;;;;;6.73;3.40;;;3.50;99.90;;;;;;4165532;28;20332;-58
2024/03/25 01:30:46;;;;;;;9.37;3.93;;;3.60;99.90;;;;;;4166609;28;20650;-57
2024/03/25 01:32:48;;;;;;;7.13;3.27;;;3.50;99.90;;;;;;4176730;28;20274;-56
2024/03/25 01:34:49;;;;;;;7.10;3.37;;;3.50;99.90;;;;;;4176638;28;20320;-54
2024/03/25 01:36:52;;;;;;;5.63;3.00;;;3.50;99.90;;;;;;4166739;28;20313;-57
2024/03/25 01:38:53;;;;;;;4.67;2.83;;;3.50;99.90;;;;;;4165909;28;20439;-51
2024/03/25 01:40:56;;;;;;;6.20;3.47;;;3.50;99.90;;;;;;4171215;28;20286;-54
2024/03/25 01:43:02;;;;;;;5.63;3.00;;;3.50;99.90;;;;;;4172081;28;20364;-57
2024/03/25 01:45:04;;;;;;;6.50;3.50;;;3.50;99.90;;;;;;4165750;28;20682;-55
2024/03/25 01:47:06;;;;;;;5.27;3.23;;;3.50;99.90;;;;;;4167589;28;20303;-55
2024/03/25 01:49:07;;;;;;;5.37;3.07;;;3.50;99.90;;;;;;4165141;28;20270;-57
2024/03/25 01:51:09;;;;;;;5.33;3.37;;;3.50;99.90;;;;;;4166219;28;20270;-54
2024/03/25 01:53:12;;;;;;;5.17;3.07;;;3.50;99.90;;;;;;4165581;28;20701;-51
2024/03/25 01:55:18;;;;;;;4.60;3.10;;;3.50;99.90;;;;;;4165311;28;20591;-55
2024/03/25 01:57:20;;;;;;;7.27;3.20;;;3.50;99.90;;;;;;4165328;28;20336;-53
2024/03/25 01:59:23;;;;;;;6.80;3.30;;;3.50;99.90;;;;;;4167360;28;20258;-57
2024/03/25 02:01:24;;;;;;;5.93;3.07;;;3.50;99.90;;;;;;4168140;28;20343;-55
2024/03/25 02:03:26;;;;;;;6.67;3.20;;;3.50;99.90;;;;;;4167686;28;20294;-56
2024/03/25 02:05:28;;;;;;;5.57;3.23;;;3.50;99.90;;;;;;4166037;28;20636;-55
2024/03/25 02:07:30;;;;;;;6.60;2.90;;;3.50;99.90;;;;;;4166901;28;20270;-57
2024/03/25 02:09:32;;;;;;;5.73;3.10;;;3.50;99.90;;;;;;4165922;28;20274;-56
2024/03/25 02:11:33;;;;;;;4.90;3.20;;;3.50;99.90;;;;;;4165577;28;20270;-53
2024/03/25 02:13:38;;;;;;;5.30;2.80;;;3.40;99.90;;;;;;4166085;28;20289;-53
2024/03/25 02:15:41;;;;;;;7.23;3.00;;;3.40;99.90;;;;;;4165121;28;20317;-51
2024/03/25 02:17:42;;;;;;;5.90;3.07;;;3.40;99.90;;;;;;4166057;28;20270;-56
2024/03/25 02:19:44;;;;;;;5.40;3.60;;;3.40;99.90;;;;;;4165458;28;20290;-56
2024/03/25 02:21:46;;;;;;;6.93;4.33;;;3.40;99.90;;;;;;4165676;28;20321;-55
2024/03/25 02:23:50;;;;;;;9.77;5.53;;;3.30;99.90;;;;;;4163439;28;20696;-57
2024/03/25 02:25:54;;;;;;;8.97;5.37;;;3.20;99.90;;;;;;4166385;28;20324;-58
2024/03/25 02:27:56;;;;;;;13.03;5.23;;;3.20;99.90;;;;;;4164692;28;20312;-57
2024/03/25 02:30:02;;;;;;;9.93;5.30;;;3.10;99.90;;;;;;4165456;28;20449;-56
2024/03/25 02:32:04;;;;;;;8.30;4.70;;;3.10;99.90;;;;;;4165076;28;20317;-56
2024/03/25 02:34:05;;;;;;;12.40;5.27;;;3.10;99.90;;;;;;4167687;28;20316;-56
2024/03/25 02:36:07;;;;;;;8.10;4.60;;;3.10;99.90;;;;;;4176620;28;20784;-54
2024/03/25 02:38:08;;;;;;;10.30;5.73;;;3.10;99.90;;;;;;4178911;28;20274;-56
2024/03/25 02:40:11;;;;;;;7.83;4.70;;;3.10;99.90;;;;;;4178525;28;20300;-55
2024/03/25 02:42:12;;;;;;;8.47;4.40;;;3.10;99.90;;;;;;4179313;28;20745;-55
2024/03/25 02:44:14;;;;;;;5.73;3.97;;;3.20;99.90;;;;;;4178858;28;20281;-53
2024/03/25 02:46:15;;;;;;;11.27;4.33;;;3.30;99.90;;;;;;4168412;28;20328;-59
2024/03/25 02:48:16;;;;;;;6.20;3.87;;;3.30;99.90;;;;;;4168978;28;20262;-55
2024/03/25 02:50:18;;;;;;;8.43;3.50;;;3.30;99.90;;;;;;4163891;28;20851;-57
2024/03/25 02:52:20;;;;;;;6.63;3.60;;;3.30;99.90;;;;;;4168832;28;20370;-56
2024/03/25 02:54:21;;;;;;;7.63;3.73;;;3.40;99.90;;;;;;4162832;28;20329;-57
2024/03/25 02:56:22;;;;;;;6.07;3.13;;;3.40;99.90;;;;;;4166396;28;20278;-52
2024/03/25 02:58:23;;;;;;;8.17;3.00;;;3.50;99.90;;;;;;4167867;28;20279;-55
2024/03/25 03:00:25;;;;;;;5.93;3.10;;;3.50;99.90;;;;;;4179240;28;20298;-55
2024/03/25 03:02:26;;;;;;;6.57;2.97;;;3.50;99.90;;;;;;4176403;28;20813;-53
2024/03/25 03:04:27;;;;;;;4.97;2.70;;;3.60;99.90;;;;;;4168934;28;20336;-55
2024/03/25 03:06:28;;;;;;;3.83;2.17;;;3.60;99.90;;;;;;4168406;28;20336;-54
2024/03/25 03:08:30;;;;;;;6.47;3.07;;;3.60;99.90;;;;;;4166302;28;20290;-57
2024/03/25 03:10:31;;;;;;;7.77;2.83;;;3.60;99.90;;;;;;4167710;28;20366;-57
2024/03/25 03:12:32;;;;;;;4.93;2.43;;;3.60;99.90;;;;;;4165029;28;20337;-55
2024/03/25 03:14:33;;;;;;;5.27;3.20;;;3.60;99.90;;;;;;4167037;28;20274;-56
2024/03/25 03:16:35;;;;;;;7.80;2.90;;;3.60;99.90;;;;;;4167354;28;20300;-57
2024/03/25 03:18:37;;;;;;;8.60;2.87;;;3.60;99.90;;;;;;4167865;28;20428;-54
2024/03/25 03:20:38;;;;;;;5.17;3.20;;;3.50;99.90;;;;;;4168043;28;20333;-55
2024/03/25 03:22:39;;;;;;;3.23;2.70;;;3.50;99.90;;;;;;4168199;28;20289;-56
2024/03/25 03:24:41;;;;;;;6.67;3.30;;;3.60;99.90;;;;;;4169945;28;20324;-57
2024/03/25 03:26:42;;;;;;;4.97;2.80;;;3.60;99.90;;;;;;4179569;28;20262;-56
2024/03/25 03:28:43;;;;;;;3.67;2.60;;;3.60;99.90;;;;;;4177767;28;20278;-53
2024/03/25 03:30:45;;;;;;;6.63;3.20;;;3.60;99.90;;;;;;4174774;28;20263;-54
2024/03/25 03:32:46;;;;;;;4.17;2.87;;;3.60;99.90;;;;;;4167504;28;20298;-54
2024/03/25 03:34:47;;;;;;;4.40;2.77;;;3.60;99.90;;;;;;4168252;28;20283;-58
2024/03/25 03:36:48;;;;;;;6.87;3.03;;;3.50;99.90;;;;;;4167152;28;20354;-54
2024/03/25 03:38:53;;;;;;;9.00;3.63;;;3.50;99.90;;;;;;4165626;28;20309;-58
2024/03/25 03:41:01;;;;;;;8.30;4.17;;;3.50;99.90;;;;;;4169820;28;20273;-57
2024/03/25 03:43:03;;;;;;;9.23;4.47;;;3.50;99.90;;;;;;4167447;28;20344;-56
2024/03/25 03:45:05;;;;;;;4.87;3.43;;;3.40;99.90;;;;;;4168274;28;20286;-58
2024/03/25 03:47:06;;;;;;;7.03;3.00;;;3.40;99.90;;;;;;4178419;28;20388;-55
2024/03/25 03:49:07;;;;;;;4.87;2.67;;;3.40;99.90;;;;;;4172356;28;20266;-56
2024/03/25 03:51:09;;;;;;;5.63;2.90;;;3.40;99.90;;;;;;4168740;28;20266;-57
2024/03/25 03:53:10;;;;;;;6.03;2.80;;;3.40;99.90;;;;;;4165470;28;20279;-56
2024/03/25 03:55:11;;;;;;;7.47;2.60;;;3.40;99.90;;;;;;4167691;28;20290;-59
2024/03/25 03:57:13;;;;;;;4.43;2.73;;;3.30;99.90;;;;;;4164028;28;20314;-53
2024/03/25 03:59:14;;;;;;;6.13;2.87;;;3.30;99.90;;;;;;4166423;28;20293;-55
2024/03/25 04:01:16;;;;;;;6.40;3.10;;;3.20;99.90;;;;;;4171282;28;20336;-56
2024/03/25 04:03:18;;;;;;;4.50;3.10;;;3.20;99.90;;;;;;4177710;28;20375;-58
2024/03/25 04:05:20;;;;;;;5.63;2.80;;;3.20;99.90;;;;;;4171470;28;20277;-53
2024/03/25 04:07:26;;;;;;;7.43;2.90;;;3.10;99.90;;;;;;4167157;28;20311;-52
2024/03/25 04:09:29;;;;;;;9.20;2.90;;;3.10;99.90;;;;;;4167437;28;20286;-51
2024/03/25 04:11:30;;;;;;;5.17;2.67;;;3.10;99.90;;;;;;4170208;28;20308;-58
2024/03/25 04:13:32;;;;;;;7.80;2.70;;;3.10;99.90;;;;;;4172816;28;20328;-58
2024/03/25 04:15:36;;;;;;;7.63;3.20;;;3.10;99.90;;;;;;4164809;28;20262;-55
2024/03/25 04:17:38;;;;;;;6.97;2.97;;;3.10;99.90;;;;;;4162206;28;20282;-58
2024/03/25 04:19:39;;;;;;;8.43;2.53;;;3.10;99.90;;;;;;4164386;28;20262;-55
2024/03/25 04:21:40;;;;;;;6.63;3.33;;;3.10;99.90;;;;;;4168721;28;20357;-57
2024/03/25 04:23:43;;;;;;;3.83;2.60;;;3.00;99.90;;;;;;4165087;28;20688;-59
2024/03/25 04:25:44;;;;;;;7.03;2.63;;;3.10;99.90;;;;;;4167421;28;20282;-55
2024/03/25 04:27:45;;;;;;;7.80;3.93;;;3.10;99.90;;;;;;4167283;28;20361;-57
2024/03/25 04:29:46;;;;;;;7.57;3.00;;;3.10;99.90;;;;;;4174334;28;20340;-51
2024/03/25 04:31:48;;;;;;;9.10;4.20;;;3.10;99.90;;;;;;4178524;28;20282;-57
2024/03/25 04:33:49;;;;;;;12.37;3.93;;;3.10;99.90;;;;;;4172010;28;20255;-56
2024/03/25 04:35:50;;;;;;;7.43;3.57;;;3.00;99.90;;;;;;4168146;28;20270;-57
2024/03/25 04:37:51;;;;;;;9.07;4.03;;;3.00;99.90;;;;;;4167030;28;20972;-58
2024/03/25 04:39:53;;;;;;;5.83;3.63;;;2.90;99.90;;;;;;4167402;28;20701;-56
2024/03/25 04:41:54;;;;;;;7.13;4.23;;;3.00;99.90;;;;;;4162726;28;20274;-55
2024/03/25 04:43:55;;;;;;;5.87;3.87;;;3.00;99.90;;;;;;4161927;28;20302;-57
2024/03/25 04:46:00;;;;;;;9.07;5.07;;;3.00;99.90;;;;;;4165250;28;20617;-58
2024/03/25 04:48:01;;;;;;;7.33;4.33;;;2.90;99.90;;;;;;4168517;28;20378;-57
2024/03/25 04:50:02;;;;;;;8.20;4.13;;;2.90;99.90;;;;;;4164823;28;20271;-53
2024/03/25 04:52:07;;;;;;;8.47;3.70;;;3.00;99.90;;;;;;4169797;28;20810;-52
2024/03/25 04:54:09;;;;;;;7.67;3.73;;;3.20;99.90;;;;;;4165937;28;20408;-57
2024/03/25 04:56:11;;;;;;;6.87;3.40;;;3.30;99.90;;;;;;4166088;28;20321;-55
2024/03/25 04:58:12;;;;;;;8.43;3.80;;;3.30;99.90;;;;;;4173716;28;20262;-57
2024/03/25 05:00:14;;;;;;;9.53;3.27;;;3.40;99.90;;;;;;4176057;28;20662;-56
2024/03/25 05:02:15;;;;;;;8.63;4.27;;;3.60;99.90;;;;;;4163479;28;20289;-55
2024/03/25 05:04:16;;;;;;;10.53;5.43;;;4.10;99.90;;;;;;4159445;28;20375;-56
2024/03/25 05:06:18;;;;;;;10.60;4.60;;;4.30;99.90;;;;;;4162312;28;20258;-58
2024/03/25 05:08:19;;;;;;;7.57;4.67;;;4.50;99.90;;;;;;4160169;28;20428;-58
2024/03/25 05:10:20;;;;;;;7.93;4.50;;;4.90;99.90;;;;;;4160485;28;20682;-51
2024/03/25 05:12:21;;;;;;;9.63;3.93;;;5.60;99.90;;;;;;4159920;28;20927;-58
2024/03/25 05:14:23;;;;;;;8.77;4.00;;;6.40;99.90;;;;;;4175860;28;20324;-55
2024/03/25 05:16:24;;;;;;;7.03;4.30;;;7.00;99.90;;;;;;4165234;28;20279;-55
2024/03/25 05:18:25;;;;;;;6.70;3.77;;;7.40;99.90;;;;;;4161068;28;20063;-57
2024/03/25 05:20:26;;;;;;;6.73;3.73;;;7.60;99.90;;;;;;4160996;28;20087;-59
2024/03/25 05:22:28;;;;;;;8.70;3.70;;;8.10;99.90;;;;;;4164432;28;20175;-59
2024/03/25 05:24:30;;;;;;;10.83;3.53;;;8.70;99.90;;;;;;4161949;28;20095;-57
2024/03/25 05:26:31;;;;;;;6.37;3.40;;;9.40;99.90;;;;;;4159648;28;20072;-55
2024/03/25 05:28:32;;;;;;;7.10;3.53;;;9.90;99.90;;;;;;4160342;28;20034;-58
2024/03/25 05:30:33;;;;;;;10.17;3.67;;;10.40;99.90;;;;;;4166115;28;20075;-56
2024/03/25 05:32:34;;;;;;;11.43;3.73;;;11.10;99.90;;;;;;4161790;28;20083;-59
2024/03/25 05:34:36;;;;;;;8.20;3.93;;;11.50;99.90;;;;;;4160166;28;20414;-56
2024/03/25 05:36:37;;;;;;;9.83;4.03;;;11.80;99.90;;;;;;4161424;28;20029;-54
2024/03/25 05:38:39;;;;;;;7.37;4.10;;;12.00;99.70;;;;;;4160174;28;20076;-57
2024/03/25 05:40:40;;;;;;;7.10;3.60;;;12.20;99.30;;;;;;4160671;28;20050;-57
2024/03/25 05:42:45;;;;;;;11.17;4.00;;;12.60;98.70;;;;;;4161070;28;20083;-57
2024/03/25 05:44:46;;;;;;;11.30;4.27;;;13.10;97.90;;;;;;4161440;28;20098;-58
2024/03/25 05:46:47;;;;;;;7.97;4.33;;;13.40;96.90;;;;;;4160441;28;20112;-58
2024/03/25 05:48:48;;;;;;;5.43;3.13;;;13.80;96.00;;;;;;4167013;28;20103;-57
2024/03/25 05:51:00;;;;;;;8.93;3.03;;;14.30;95.10;;;;;;4160532;28;20033;-58
2024/03/25 05:53:01;;;;;;;7.03;3.40;;;14.70;92.50;;;;;;4160894;28;20099;-58
2024/03/25 05:55:03;;;;;;;10.85;3.92;;;14.20;92.70;;;;;;4159553;28;20501;-56
2024/03/25 05:57:05;;;;;;;9.60;4.45;;;13.70;93.30;;;;;;4161071;28;20544;-56
2024/03/25 05:59:06;;;;;;;10.40;4.10;;;14.00;93.50;;;;;;4160320;28;20547;-57
2024/03/25 06:01:07;;;;;;;8.13;4.57;;;14.70;92.90;;;;;;4161100;28;20107;-58
2024/03/25 06:03:08;;;;;;;7.60;3.90;;;15.00;91.90;;;;;;4171142;28;20504;-55
2024/03/25 06:05:09;;;;;;;13.57;5.70;;;14.70;91.30;;;;;;4176113;28;20378;-55
2024/03/25 06:07:11;;;;;;;7.13;4.60;;;14.20;91.50;;;;;;4176991;28;20604;-56
2024/03/25 06:09:12;;;;;;;8.30;5.55;;;14.00;91.40;;;;;;4176010;28;20079;-56
2024/03/25 06:11:13;;;;;;;7.30;4.67;;;14.30;91.00;;;;;;4179199;28;20094;-56
2024/03/25 06:13:15;;;;;;;11.25;5.40;;;14.40;90.80;;;;;;4177828;28;20037;-56
2024/03/25 06:15:16;;;;;;;14.07;4.87;;;15.00;90.50;;;;;;4178429;28;20448;-55
2024/03/25 06:17:17;;;;;;;9.80;4.87;;;15.70;89.90;;;;;;4179003;28;20373;-52
2024/03/25 06:19:18;;;;;;;9.45;4.68;;;16.40;88.10;;;;;;4179682;28;20501;-56
2024/03/25 06:21:20;;;;;;;9.70;4.75;;;16.40;86.50;;;;;;4178660;28;20071;-53
2024/03/25 06:23:27;;;;;;;4.30;3.10;;;16.00;85.80;;;;;;4179845;28;20037;-55
2024/03/25 06:25:29;;;;;;;3.38;2.55;;;15.50;85.30;;;;;;4179027;28;20091;-56
2024/03/25 06:27:31;;;;;;;4.00;2.28;;;15.60;86.00;;;;;;4180187;28;20087;-56
2024/03/25 06:29:33;;;;;;;2.45;1.80;;;15.30;86.10;;;;;;4178802;28;20017;-57
2024/03/25 06:36:14;;;;;;;2.58;1.77;;;16.30;83.00;;;;;;4180852;28;20358;-57
2024/03/25 06:38:15;;;;;;;3.60;1.70;;;16.50;83.10;;;;;;4179141;28;20094;-57
2024/03/25 06:40:16;;;;;;;3.03;1.92;;;16.80;81.90;;;;;;4179573;28;20108;-57
2024/03/25 06:42:18;;;;;;;3.50;2.15;;;16.90;81.50;;;;;;4179036;28;20091;-56
2024/03/25 06:44:19;;;;;;;2.00;1.30;;;16.80;81.00;;;;;;4178948;28;20045;-55
2024/03/25 06:46:20;;;;;;;3.13;1.40;;;16.80;80.60;;;;;;4179202;28;20439;-58
2024/03/25 06:48:22;;;;;;;1.45;1.27;;;16.10;80.50;;;;;;4179320;28;20424;-56
2024/03/25 06:50:23;;;;;;;3.72;1.42;;;16.10;81.30;;;;;;4179496;28;20045;-52
2024/03/25 06:52:24;;;;;;;5.13;1.38;;;15.70;80.90;;;;;;4178863;28;20033;-55
2024/03/25 06:54:25;;;;;;;1.15;1.05;;;15.40;81.60;;;;;;4179472;28;20107;-55
2024/03/25 06:56:27;;;;;;;1.30;1.10;;;14.80;81.20;;;;;;4178216;28;20049;-54
2024/03/25 06:58:29;;;;;;;3.78;0.90;;;14.20;82.50;;;;;;4179373;28;20124;-57
2024/03/25 07:00:30;;;;;;;2.40;1.10;;;14.10;83.40;;;;;;4178148;28;20497;-55
2024/03/25 07:02:31;;;;;;;1.50;0.80;;;13.90;83.10;;;;;;4179503;28;20025;-54
2024/03/25 07:04:32;;;;;;;4.10;0.90;;;13.70;83.70;;;;;;4178426;28;20041;-56
2024/03/25 07:06:34;;;;;;;0.70;0.60;;;13.30;83.90;;;;;;4179545;28;20531;-55
2024/03/25 07:08:35;;;;;;;1.00;0.70;;;12.90;84.50;;;;;;4178425;28;20086;-53
2024/03/25 07:10:36;;;;;;;1.17;0.80;;;12.50;84.90;;;;;;4179353;28;20543;-57
2024/03/25 07:12:37;;;;;;;2.30;0.80;;;12.30;85.60;;;;;;4177721;28;20079;-57
2024/03/25 07:14:39;;;;;;;4.33;0.70;;;12.20;85.80;;;;;;4178820;28;20420;-56
2024/03/25 07:16:40;;;;;;;2.63;0.80;;;12.30;86.00;;;;;;4178401;28;20475;-52
2024/03/25 07:18:41;;;;;;;3.50;0.70;;;12.20;86.10;;;;;;4178490;28;20041;-53
2024/03/25 07:20:43;;;;;;;1.00;0.60;;;13.00;86.10;;;;;;4179023;28;20079;-57
2024/03/25 07:22:45;;;;;;;1.73;0.70;;;12.90;84.70;;;;;;4177912;28;20079;-56
2024/03/25 07:24:46;;;;;;;1.30;0.90;;;12.70;84.80;;;;;;4179091;28;20045;-56
2024/03/25 07:26:48;;;;;;;0.80;0.47;;;12.40;85.30;;;;;;4177780;28;20045;-54
2024/03/25 07:28:49;;;;;;;3.77;0.80;;;12.10;85.60;;;;;;4179078;28;20110;-57
2024/03/25 07:30:50;;;;;;;3.33;0.77;;;12.20;86.20;;;;;;4178270;28;20033;-56
2024/03/25 07:32:52;;;;;;;0.80;0.40;;;12.10;85.80;;;;;;4179536;28;20033;-56
2024/03/25 07:34:53;;;;;;;3.13;0.57;;;12.00;86.00;;;;;;4177883;28;20049;-57
2024/03/25 07:36:54;;;;;;;1.03;0.60;;;12.10;85.80;;;;;;4179206;28;20458;-56
2024/03/25 07:38:55;;;;;;;1.50;0.57;;;12.20;85.70;;;;;;4178119;28;20554;-57
2024/03/25 07:41:02;;;;;;;4.07;0.50;;;12.00;85.70;;;;;;4178934;28;20037;-56
2024/03/25 07:43:05;;;;;;;2.23;0.50;;;11.90;86.20;;;;;;4178016;28;20075;-56
2024/03/25 07:45:07;;;;;;;2.43;0.60;;;11.70;86.50;;;;;;4178284;28;20103;-58
2024/03/25 07:47:08;;;;;;;4.23;1.17;;;11.80;86.60;;;;;;4178064;28;20366;-57
2024/03/25 07:49:09;;;;;;;4.67;0.90;;;11.80;86.60;;;;;;4178655;28;20083;-57
2024/03/25 07:51:10;;;;;;;3.03;0.63;;;11.90;86.80;;;;;;4176685;28;20037;-56
2024/03/25 07:53:12;;;;;;;0.93;0.60;;;12.00;86.90;;;;;;4177886;28;20093;-57
2024/03/25 07:55:14;;;;;;;0.60;0.40;;;11.90;86.80;;;;;;4178611;28;20087;-55
2024/03/25 07:57:16;;;;;;;1.53;1.30;;;11.70;86.50;;;;;;4177872;28;20104;-56
2024/03/25 07:59:18;;;;;;;6.00;2.77;;;11.70;87.10;;;;;;4178465;28;20489;-57
2024/03/25 08:01:19;;;;;;;0.67;0.60;;;11.60;87.00;;;;;;4177194;28;20110;-56
2024/03/25 08:03:20;;;;;;;1.77;0.67;;;11.70;87.20;;;;;;4178520;28;20481;-56
2024/03/25 08:05:22;;;;;;;1.97;0.77;;;11.60;86.70;;;;;;4177593;28;20412;-55
2024/03/25 08:07:23;;;;;;;1.50;0.67;;;11.80;86.60;;;;;;4178860;28;20033;-55
2024/03/25 08:09:24;;;;;;;0.70;0.60;;;12.00;86.50;;;;;;4177413;28;20071;-55
2024/03/25 08:11:26;;;;;;;0.60;0.50;;;12.20;86.10;;;;;;4178182;28;20037;-57
2024/03/25 08:13:28;;;;;;;0.97;0.50;;;12.10;85.70;;;;;;4177726;28;20063;-55
2024/03/25 08:15:29;;;;;;;2.80;1.00;;;12.00;86.10;;;;;;4178317;28;20535;-53
2024/03/25 08:17:30;;;;;;;4.00;1.53;;;11.90;86.80;;;;;;4177275;28;20086;-55
2024/03/25 08:19:31;;;;;;;11.73;1.20;;;11.70;87.40;;;;;;4178214;28;20520;-55
2024/03/25 08:21:33;;;;;;;0.70;0.40;;;11.50;87.40;;;;;;4177682;28;20059;-57
2024/03/25 08:23:34;;;;;;;0.83;0.37;;;11.30;86.10;;;;;;4177290;28;20045;-54
2024/03/25 08:25:35;;;;;;;1.70;0.70;;;11.10;85.90;;;;;;4177736;28;20044;-58
2024/03/25 08:27:37;;;;;;;2.43;0.30;;;10.90;85.80;;;;;;4177488;28;20094;-55
2024/03/25 08:29:38;;;;;;;1.27;0.60;;;10.80;84.50;;;;;;4178517;28;20370;-58
2024/03/25 08:31:39;;;;;;;0.90;0.40;;;10.90;84.30;;;;;;4176171;28;20094;-51
2024/03/25 08:33:41;;;;;;;0.97;0.53;;;10.90;84.20;;;;;;4178188;28;20040;-56
2024/03/25 08:35:42;;;;;;;0.77;0.50;;;11.10;85.30;;;;;;4177108;28;20402;-57
2024/03/25 08:37:43;;;;;;;1.80;1.23;;;11.40;84.80;;;;;;4178658;28;20086;-57
2024/03/25 08:39:45;;;;;;;2.77;1.00;;;11.70;83.70;;;;;;4176768;28;20024;-58
2024/03/25 08:41:46;;;;;;;1.70;0.20;;;11.80;83.80;;;;;;4178261;28;20079;-58
2024/03/25 08:43:47;;;;;;;0.20;0.10;;;11.90;82.90;;;;;;4176756;28;20029;-60
2024/03/25 08:45:48;;;;;;;1.00;0.40;;;11.70;82.80;;;;;;4178309;28;20435;-55
2024/03/25 08:47:49;;;;;;;0.70;0.50;;;11.50;82.90;;;;;;4177332;28;20384;-57
2024/03/25 08:49:51;;;;;;;1.07;0.40;;;11.30;83.30;;;;;;4177258;28;20059;-53
2024/03/25 08:51:52;;;;;;;3.97;0.83;;;11.00;84.20;;;;;;4177405;28;20079;-51
2024/03/25 08:53:53;;;;;;;1.17;0.50;;;10.90;84.60;;;;;;4176616;28;20107;-58
2024/03/25 08:55:55;;;;;;;3.27;0.93;;;10.80;84.00;;;;;;4177371;28;20036;-56
2024/03/25 08:57:59;;;;;;;1.93;0.37;;;10.60;83.80;;;;;;4176402;28;20045;-56
2024/03/25 09:00:01;;;;;;;2.27;0.40;;;10.50;84.50;;;;;;4177252;28;20127;-56
2024/03/25 09:02:02;;;;;;;1.60;0.40;;;10.50;84.70;;;;;;4176923;28;20436;-57
2024/03/25 09:04:03;;;;;;;2.30;0.30;;;10.50;84.70;;;;;;4177413;28;20053;-57
2024/03/25 09:06:05;;;;;;;1.47;1.03;;;10.50;84.90;;;;;;4176714;28;20189;-57
2024/03/25 09:08:06;;;;;;;0.70;0.30;;;10.70;85.00;;;;;;4177866;28;20091;-55
2024/03/25 09:12:28;;;;;;;2.55;0.50;;;10.90;84.50;;;;;;4178012;28;20037;-54
2024/03/25 09:14:29;;;;;;;0.87;0.30;;;10.70;84.40;;;;;;4171409;28;20436;-56
2024/03/25 09:16:31;;;;;;;0.33;0.30;;;10.50;84.20;;;;;;4161388;28;20046;-56
2024/03/25 09:18:32;;;;;;;0.50;0.20;;;10.40;83.00;;;;;;4159541;28;20026;-59
2024/03/25 09:20:33;;;;;;;1.03;0.27;;;10.20;83.30;;;;;;4161320;28;20033;-59
2024/03/25 09:22:34;;;;;;;1.73;0.40;;;10.10;82.80;;;;;;4159688;28;20393;-58
2024/03/25 09:24:36;;;;;;;1.83;0.33;;;10.00;83.00;;;;;;4160981;28;20037;-59
2024/03/25 09:26:37;;;;;;;0.77;0.20;;;10.00;83.10;;;;;;4159983;28;20037;-57
2024/03/25 09:28:39;;;;;;;0.40;0.30;;;10.00;82.90;;;;;;4160353;28;20087;-56
2024/03/25 09:30:40;;;;;;;2.97;0.50;;;10.00;83.50;;;;;;4159989;28;20033;-57
2024/03/25 09:32:42;;;;;;;0.70;0.40;;;10.00;84.30;;;;;;4160156;28;20037;-58
2024/03/25 09:34:47;;;;;;;2.10;0.50;;;10.00;84.00;;;;;;4161153;28;21116;-59
2024/03/25 09:36:48;;;;;;;2.40;0.50;;;10.00;84.50;;;;;;4159818;28;20050;-58
2024/03/25 09:38:50;;;;;;;1.93;0.67;;;10.00;84.80;;;;;;4161323;28;20079;-57
2024/03/25 09:40:53;;;;;;;1.73;0.60;;;10.00;84.60;;;;;;4160269;28;20159;-56
2024/03/25 09:42:59;;;;;;;1.03;0.40;;;9.90;84.40;;;;;;4162261;28;20108;-56
2024/03/25 09:45:03;;;;;;;1.03;0.50;;;9.90;84.10;;;;;;4164916;28;20100;-59
2024/03/25 09:47:04;;;;;;;4.53;1.63;;;9.80;83.40;;;;;;4166561;28;20053;-57
2024/03/25 09:49:07;;;;;;;1.47;0.70;;;9.80;83.50;;;;;;4165193;28;20099;-60
2024/03/25 09:51:09;;;;;;;3.47;0.80;;;9.80;84.00;;;;;;4166493;28;20037;-59
2024/03/25 09:53:11;;;;;;;1.70;0.60;;;9.90;83.70;;;;;;4164928;28;20056;-57
2024/03/25 09:55:12;;;;;;;2.40;0.40;;;9.80;83.60;;;;;;4166089;28;20037;-59
2024/03/25 09:57:14;;;;;;;1.57;0.50;;;9.80;83.60;;;;;;4165066;28;20104;-57
2024/03/25 09:59:16;;;;;;;4.97;0.50;;;9.70;83.60;;;;;;4166063;28;20432;-57
2024/03/25 10:01:18;;;;;;;2.50;0.50;;;9.70;83.50;;;;;;4165091;28;20045;-58
2024/03/25 10:03:20;;;;;;;1.97;1.10;;;9.60;83.70;;;;;;4165724;28;20107;-57
2024/03/25 10:05:21;;;;;;;2.67;1.47;;;9.50;83.70;;;;;;4165281;28;20049;-57
2024/03/25 10:07:23;;;;;;;10.20;5.30;;;9.40;83.90;;;;;;4165811;28;20075;-59
2024/03/25 10:09:28;;;;;;;9.90;4.73;;;9.30;84.30;;;;;;4166355;28;20033;-58
2024/03/25 10:11:32;;;;;;;15.80;7.13;;;9.30;84.30;;;;;;4165278;28;20017;-58
2024/03/25 10:13:33;;;;;;;5.27;4.40;;;9.40;84.70;;;;;;4166501;28;20100;-57
2024/03/25 10:15:34;;;;;;;3.17;2.87;;;9.50;84.80;;;;;;4165171;28;20034;-60
2024/03/25 10:17:35;;;;;;;2.73;2.27;;;9.60;85.00;;;;;;4165938;28;20805;-59
2024/03/25 10:19:37;;;;;;;1.50;1.10;;;9.60;85.00;;;;;;4165204;28;20478;-60
2024/03/25 10:21:39;;;;;;;2.40;1.00;;;9.60;85.10;;;;;;4165934;28;20439;-57
2024/03/25 10:23:42;;;;;;;2.37;1.17;;;9.60;85.10;;;;;;4164679;28;20037;-58
2024/03/25 10:25:43;;;;;;;1.20;0.60;;;9.60;85.20;;;;;;4166606;28;20481;-58
2024/03/25 10:27:53;;;;;;;3.13;0.90;;;9.60;85.10;;;;;;4164789;28;20025;-54
2024/03/25 10:29:55;;;;;;;2.47;0.73;;;9.60;84.80;;;;;;4166351;28;20042;-58
2024/03/25 10:32:00;;;;;;;1.20;0.60;;;9.60;83.30;;;;;;4165231;28;20022;-56
2024/03/25 10:34:02;;;;;;;1.17;0.43;;;9.60;83.80;;;;;;4166145;28;20072;-58
2024/03/25 10:36:04;;;;;;;2.40;0.90;;;9.70;84.40;;;;;;4165146;28;20075;-56
2024/03/25 10:38:07;;;;;;;4.73;0.80;;;9.70;84.60;;;;;;4166158;28;20465;-59
2024/03/25 10:40:12;;;;;;;3.07;0.90;;;9.90;84.60;;;;;;4165229;28;20486;-56
2024/03/25 10:42:14;;;;;;;3.53;0.77;;;9.90;84.40;;;;;;4165377;28;20072;-55
2024/03/25 10:44:15;;;;;;;3.53;1.33;;;10.10;84.70;;;;;;4165133;28;20433;-57
2024/03/25 10:46:22;;;;;;;2.87;1.53;;;10.30;84.70;;;;;;4164786;28;20033;-56